createdAt,value
2023-05-15T00:00:06.870Z,5.93
2023-05-15T00:02:36.131Z,6.50
2023-05-15T00:05:04.555Z,7.38
2023-05-15T00:07:32.647Z,5.90
2023-05-15T00:10:00.378Z,5.68
2023-05-15T00:12:28.851Z,6.03
2023-05-15T00:14:56.655Z,14.75
2023-05-15T00:17:24.389Z,6.78
2023-05-15T00:19:57.532Z,5.78
2023-05-15T00:22:25.917Z,5.32
2023-05-15T00:24:53.755Z,6.07
2023-05-15T00:27:21.525Z,4.95
2023-05-15T00:29:49.264Z,4.43
2023-05-15T00:32:16.966Z,4.50
2023-05-15T00:34:44.713Z,4.93
2023-05-15T00:37:13.906Z,4.40
2023-05-15T00:39:41.592Z,4.38
2023-05-15T00:42:10.257Z,4.85
2023-05-15T00:44:42.618Z,4.20
2023-05-15T00:47:12.108Z,4.38
2023-05-15T00:49:40.012Z,4.03
2023-05-15T00:52:08.762Z,4.13
2023-05-15T00:54:38.189Z,3.95
2023-05-15T00:57:07.177Z,4.40
2023-05-15T00:59:35.747Z,3.90
2023-05-15T01:02:04.139Z,4.13
2023-05-15T01:04:32.044Z,4.32
2023-05-15T01:07:00.046Z,3.80
2023-05-15T01:09:31.279Z,3.92
2023-05-15T01:12:02.026Z,3.80
2023-05-15T01:14:29.710Z,4.10
2023-05-15T01:16:57.476Z,4.28
2023-05-15T01:19:26.010Z,3.50
2023-05-15T01:22:23.645Z,3.70
2023-05-15T01:25:09.146Z,3.88
2023-05-15T01:27:43.859Z,4.10
2023-05-15T01:30:17.924Z,3.95
2023-05-15T01:32:55.516Z,3.65
2023-05-15T01:35:29.962Z,3.90
2023-05-15T01:38:20.309Z,3.92
2023-05-15T01:40:49.660Z,4.40
2023-05-15T01:43:23.338Z,4.50
2023-05-15T01:45:51.215Z,4.18
2023-05-15T01:48:21.093Z,4.22
2023-05-15T01:50:52.706Z,4.03
2023-05-15T01:53:21.732Z,4.55
2023-05-15T01:55:50.661Z,4.53
2023-05-15T01:58:20.310Z,4.45
2023-05-15T02:00:49.859Z,4.70
2023-05-15T02:03:18.420Z,4.88
2023-05-15T02:05:48.084Z,5.13
2023-05-15T02:08:16.720Z,6.63
2023-05-15T02:10:44.698Z,5.68
2023-05-15T02:13:14.767Z,4.75
2023-05-15T02:15:43.923Z,4.88
2023-05-15T02:18:12.197Z,12.45
2023-05-15T02:20:39.925Z,8.48
2023-05-15T02:23:08.713Z,8.02
2023-05-15T02:26:02.552Z,8.25
2023-05-15T02:28:39.904Z,7.93
2023-05-15T02:31:15.466Z,8.02
2023-05-15T02:33:52.570Z,7.10
2023-05-15T02:36:24.593Z,6.85
2023-05-15T02:41:22.077Z,6.72
2023-05-15T02:43:52.936Z,6.70
2023-05-15T02:46:24.477Z,6.38
2023-05-15T02:48:53.628Z,6.78
2023-05-15T02:51:22.117Z,6.50
2023-05-15T02:53:50.471Z,6.30
2023-05-15T02:56:18.204Z,7.20
2023-05-15T02:58:46.308Z,6.57
2023-05-15T03:01:14.214Z,7.05
2023-05-15T03:03:43.324Z,7.70
2023-05-15T03:06:11.130Z,8.15
2023-05-15T03:08:38.894Z,7.60
2023-05-15T03:11:06.828Z,7.32
2023-05-15T03:13:34.545Z,7.40
2023-05-15T03:16:02.313Z,8.55
2023-05-15T03:18:30.129Z,6.95
2023-05-15T03:20:59.225Z,7.20
2023-05-15T03:23:27.178Z,8.30
2023-05-15T03:25:55.251Z,8.20
2023-05-15T03:28:22.938Z,7.97
2023-05-15T03:30:50.674Z,8.25
2023-05-15T03:33:18.406Z,8.60
2023-05-15T03:35:46.156Z,9.25
2023-05-15T03:38:15.413Z,8.65
2023-05-15T03:40:43.139Z,9.23
2023-05-15T03:43:11.520Z,8.30
2023-05-15T03:45:40.141Z,8.48
2023-05-15T03:48:08.230Z,8.85
2023-05-15T03:50:36.137Z,8.50
2023-05-15T03:53:03.920Z,9.18
2023-05-15T03:55:33.064Z,9.07
2023-05-15T03:58:00.987Z,9.02
2023-05-15T04:00:28.898Z,8.30
2023-05-15T04:02:59.277Z,8.85
2023-05-15T04:05:27.328Z,8.98
2023-05-15T04:07:55.420Z,8.57
2023-05-15T04:10:23.302Z,8.93
2023-05-15T04:12:52.911Z,8.02
2023-05-15T04:15:22.652Z,9.88
2023-05-15T04:17:51.865Z,8.10
2023-05-15T04:20:21.652Z,9.77
2023-05-15T04:22:49.586Z,9.75
2023-05-15T04:25:18.157Z,9.52
2023-05-15T04:27:46.023Z,9.52
2023-05-15T04:30:15.514Z,10.00
2023-05-15T04:32:43.631Z,9.50
2023-05-15T04:35:13.451Z,9.63
2023-05-15T04:37:42.848Z,9.65
2023-05-15T04:40:11.210Z,10.38
2023-05-15T04:42:39.659Z,9.77
2023-05-15T04:45:09.195Z,9.05
2023-05-15T04:47:38.529Z,8.85
2023-05-15T04:50:07.730Z,8.65
2023-05-15T04:52:35.548Z,8.57
2023-05-15T04:55:03.565Z,8.60
2023-05-15T04:57:31.522Z,8.43
2023-05-15T04:59:59.332Z,7.57
2023-05-15T05:02:27.321Z,7.30
2023-05-15T05:04:56.597Z,7.53
2023-05-15T05:07:24.284Z,7.05
2023-05-15T05:09:52.056Z,7.80
2023-05-15T05:12:19.793Z,7.78
2023-05-15T05:14:47.542Z,8.32
2023-05-15T05:17:15.283Z,7.93
2023-05-15T05:19:43.136Z,8.05
2023-05-15T05:22:12.485Z,7.07
2023-05-15T05:24:40.417Z,6.85
2023-05-15T05:27:08.554Z,6.88
2023-05-15T05:29:36.305Z,7.05
2023-05-15T05:32:04.316Z,6.85
2023-05-15T05:34:32.213Z,5.88
2023-05-15T05:36:59.903Z,4.95
2023-05-15T05:39:29.351Z,5.35
2023-05-15T05:41:57.100Z,5.28
2023-05-15T05:44:24.850Z,5.10
2023-05-15T05:46:53.631Z,5.28
2023-05-15T05:49:21.411Z,5.00
2023-05-15T05:51:49.274Z,4.40
2023-05-15T05:54:18.254Z,4.97
2023-05-15T05:56:47.447Z,4.55
2023-05-15T05:59:15.285Z,4.72
2023-05-15T06:01:43.262Z,4.28
2023-05-15T06:04:11.424Z,3.92
2023-05-15T06:06:39.217Z,3.97
2023-05-15T06:09:06.951Z,4.70
2023-05-15T06:11:35.271Z,4.20
2023-05-15T06:14:04.405Z,4.43
2023-05-15T06:16:32.175Z,4.90
2023-05-15T06:19:00.034Z,4.68
2023-05-15T06:21:27.982Z,4.80
2023-05-15T06:23:55.656Z,5.05
2023-05-15T06:26:23.644Z,5.40
2023-05-15T06:28:51.316Z,6.07
2023-05-15T06:31:20.631Z,5.90
2023-05-15T06:33:48.416Z,6.35
2023-05-15T06:36:16.157Z,7.53
2023-05-15T06:38:43.910Z,6.47
2023-05-15T06:41:11.599Z,5.88
2023-05-15T06:43:39.256Z,5.68
2023-05-15T06:46:07.063Z,5.68
2023-05-15T06:48:37.306Z,5.43
2023-05-15T06:51:05.173Z,5.78
2023-05-15T06:53:32.927Z,6.45
2023-05-15T06:56:00.668Z,6.53
2023-05-15T06:58:28.391Z,7.03
2023-05-15T07:00:56.699Z,6.63
2023-05-15T07:03:25.653Z,7.38
2023-05-15T07:05:54.808Z,7.47
2023-05-15T07:08:22.524Z,7.00
2023-05-15T07:10:50.459Z,7.53
2023-05-15T07:13:19.012Z,6.57
2023-05-15T07:15:46.891Z,7.13
2023-05-15T07:18:14.740Z,6.40
2023-05-15T07:20:42.551Z,6.57
2023-05-15T07:23:11.824Z,6.68
2023-05-15T07:25:39.946Z,6.55
2023-05-15T07:28:07.703Z,5.57
2023-05-15T07:30:35.443Z,5.65
2023-05-15T07:33:03.272Z,6.55
2023-05-15T07:35:31.243Z,5.53
2023-05-15T07:37:59.110Z,5.90
2023-05-15T07:40:28.262Z,6.93
2023-05-15T07:42:56.244Z,8.63
2023-05-15T07:45:24.034Z,6.63
2023-05-15T07:47:54.451Z,6.22
2023-05-15T07:50:22.233Z,7.50
2023-05-15T07:52:49.947Z,7.55
2023-05-15T07:55:17.717Z,7.75
2023-05-15T07:57:53.553Z,7.82
2023-05-15T08:00:24.905Z,8.95
2023-05-15T08:02:52.725Z,9.53
2023-05-15T08:05:20.626Z,18.13
2023-05-15T08:07:48.330Z,11.40
2023-05-15T08:10:16.136Z,9.98
2023-05-15T08:12:46.566Z,9.57
2023-05-15T08:15:15.953Z,8.30
2023-05-15T08:17:43.988Z,8.07
2023-05-15T08:20:12.823Z,7.82
2023-05-15T08:22:40.664Z,7.20
2023-05-15T08:25:09.430Z,6.32
2023-05-15T08:27:37.155Z,7.13
2023-05-15T08:30:05.473Z,7.10
2023-05-15T08:32:34.568Z,7.28
2023-05-15T08:35:02.400Z,7.88
2023-05-15T08:37:30.757Z,6.95
2023-05-15T08:39:58.485Z,7.28
2023-05-15T08:42:34.335Z,6.88
2023-05-15T08:45:02.509Z,6.30
2023-05-15T08:47:30.631Z,6.53
2023-05-15T08:50:07.146Z,5.60
2023-05-15T08:52:36.153Z,4.53
2023-05-15T08:55:04.622Z,4.30
2023-05-15T08:57:34.671Z,4.85
2023-05-15T09:00:07.026Z,3.63
2023-05-15T09:02:37.039Z,4.00
2023-05-15T09:05:07.274Z,3.75
2023-05-15T09:07:35.458Z,3.67
2023-05-15T09:10:04.537Z,3.67
2023-05-15T09:12:35.002Z,4.00
2023-05-15T09:15:13.268Z,3.40
2023-05-15T09:17:43.220Z,3.58
2023-05-15T09:23:26.036Z,3.00
2023-05-15T09:25:58.965Z,3.28
2023-05-15T09:28:29.208Z,3.50
2023-05-15T09:31:01.758Z,3.97
2023-05-15T09:33:31.371Z,3.78
2023-05-15T09:35:59.436Z,3.88
2023-05-15T09:38:28.640Z,4.07
2023-05-15T09:41:03.899Z,3.75
2023-05-15T09:43:35.607Z,4.18
2023-05-15T09:46:03.467Z,4.30
2023-05-15T09:48:32.445Z,4.78
2023-05-15T09:51:00.336Z,5.07
2023-05-15T09:53:30.575Z,5.43
2023-05-15T09:55:58.391Z,5.72
2023-05-15T09:58:26.281Z,6.50
2023-05-15T10:00:54.031Z,11.27
2023-05-15T10:03:21.961Z,5.28
2023-05-15T10:05:49.853Z,5.13
2023-05-15T10:08:27.071Z,4.53
2023-05-15T10:11:00.292Z,4.97
2023-05-15T10:13:28.939Z,4.00
2023-05-15T10:15:58.774Z,2.78
2023-05-15T10:18:30.190Z,3.00
2023-05-15T10:21:01.301Z,2.47
2023-05-15T10:23:32.211Z,2.67
2023-05-15T10:26:05.323Z,2.60
2023-05-15T10:28:34.273Z,4.38
2023-05-15T10:31:02.971Z,2.90
2023-05-15T10:33:31.184Z,2.80
2023-05-15T10:36:00.132Z,2.53
2023-05-15T10:38:28.826Z,4.20
2023-05-15T10:41:13.196Z,3.80
2023-05-15T10:43:47.467Z,2.80
2023-05-15T10:46:16.615Z,2.88
2023-05-15T10:48:44.820Z,2.50
2023-05-15T10:51:19.182Z,2.30
2023-05-15T10:53:47.307Z,2.00
2023-05-15T10:56:17.260Z,1.88
2023-05-15T10:58:51.033Z,1.60
2023-05-15T11:01:29.697Z,1.40
2023-05-15T11:04:09.222Z,1.60
2023-05-15T11:06:37.895Z,1.67
2023-05-15T11:09:39.753Z,1.60
2023-05-15T11:12:09.459Z,1.77
2023-05-15T11:14:40.824Z,1.70
2023-05-15T11:17:10.060Z,1.60
2023-05-15T11:19:58.677Z,1.70
2023-05-15T11:22:32.364Z,1.60
2023-05-15T11:25:02.292Z,1.60
2023-05-15T11:27:31.954Z,1.77
2023-05-15T11:30:10.167Z,1.92
2023-05-15T11:32:57.386Z,2.03
2023-05-15T11:35:27.729Z,1.70
2023-05-15T11:37:57.093Z,1.52
2023-05-15T11:40:27.943Z,1.50
2023-05-15T11:43:04.414Z,1.40
2023-05-15T11:45:36.278Z,1.50
2023-05-15T11:48:06.513Z,1.58
2023-05-15T11:50:35.837Z,1.48
2023-05-15T11:53:05.640Z,1.30
2023-05-15T11:55:35.258Z,1.08
2023-05-15T11:58:04.175Z,1.25
2023-05-15T12:00:33.615Z,1.40
2023-05-15T12:03:03.733Z,1.30
2023-05-15T12:05:32.044Z,1.20
2023-05-15T12:07:59.963Z,1.10
2023-05-15T12:10:28.029Z,0.90
2023-05-15T12:12:55.914Z,1.10
2023-05-15T12:15:23.785Z,1.23
2023-05-15T12:17:52.940Z,1.20
2023-05-15T12:20:20.822Z,1.30
2023-05-15T12:22:48.645Z,1.52
2023-05-15T12:25:17.733Z,1.30
2023-05-15T12:27:45.839Z,1.30
2023-05-15T12:30:16.969Z,1.52
2023-05-15T12:35:13.999Z,1.50
2023-05-15T12:37:43.538Z,1.30
2023-05-15T12:40:12.509Z,1.55
2023-05-15T12:42:41.833Z,1.60
2023-05-15T12:45:16.449Z,1.30
2023-05-15T12:47:45.271Z,1.52
2023-05-15T12:50:17.027Z,1.50
2023-05-15T12:52:51.460Z,1.50
2023-05-15T12:55:23.518Z,1.48
2023-05-15T12:57:51.399Z,1.20
2023-05-15T13:00:21.415Z,1.27
2023-05-15T13:02:50.966Z,1.10
2023-05-15T13:05:20.369Z,1.45
2023-05-15T13:07:49.218Z,1.30
2023-05-15T13:10:17.000Z,1.15
2023-05-15T13:12:46.875Z,1.38
2023-05-15T13:15:30.097Z,15.50
2023-05-15T13:18:01.504Z,1.85
2023-05-15T13:20:33.697Z,0.95
2023-05-15T13:23:03.190Z,1.13
2023-05-15T13:25:32.128Z,1.45
2023-05-15T13:28:01.762Z,1.20
2023-05-15T13:30:30.072Z,14.65
2023-05-15T13:32:57.861Z,1.48
2023-05-15T13:35:25.653Z,1.10
2023-05-15T13:37:54.831Z,1.38
2023-05-15T13:40:23.267Z,1.33
2023-05-15T13:42:51.254Z,1.50
2023-05-15T13:45:18.982Z,1.27
2023-05-15T13:47:46.821Z,1.20
2023-05-15T13:50:16.405Z,1.50
2023-05-15T13:52:46.143Z,1.20
2023-05-15T13:55:15.445Z,1.15
2023-05-15T13:57:45.275Z,1.55
2023-05-15T14:00:14.565Z,1.50
2023-05-15T14:02:44.006Z,1.25
2023-05-15T14:05:12.915Z,1.23
2023-05-15T14:07:41.239Z,1.25
2023-05-15T14:10:09.830Z,1.38
2023-05-15T14:12:39.885Z,1.23
2023-05-15T14:15:11.193Z,1.35
2023-05-15T14:17:39.333Z,1.40
2023-05-15T14:20:08.748Z,1.67
2023-05-15T14:22:36.837Z,1.48
2023-05-15T14:25:05.185Z,1.67
2023-05-15T14:27:32.987Z,2.97
2023-05-15T14:30:02.470Z,1.52
2023-05-15T14:32:30.233Z,1.90
2023-05-15T14:35:00.027Z,1.73
2023-05-15T14:37:31.217Z,1.67
2023-05-15T14:39:59.050Z,1.60
2023-05-15T14:42:27.925Z,1.90
2023-05-15T14:44:55.769Z,1.75
2023-05-15T14:47:25.362Z,1.50
2023-05-15T14:49:53.112Z,1.92
2023-05-15T14:52:20.861Z,1.77
2023-05-15T14:55:00.663Z,1.70
2023-05-15T14:57:36.042Z,1.67
2023-05-15T15:00:06.128Z,1.70
2023-05-15T15:02:35.620Z,4.63
2023-05-15T15:05:04.573Z,1.67
2023-05-15T15:07:52.686Z,1.55
2023-05-15T15:10:20.385Z,1.70
2023-05-15T15:12:48.084Z,1.95
2023-05-15T15:15:16.159Z,1.90
2023-05-15T15:17:45.394Z,1.90
2023-05-15T15:20:14.920Z,1.70
2023-05-15T15:22:42.750Z,1.63
2023-05-15T15:25:10.891Z,2.10
2023-05-15T15:27:38.800Z,1.83
2023-05-15T15:30:08.507Z,1.65
2023-05-15T15:32:36.635Z,1.73
2023-05-15T15:35:06.793Z,2.13
2023-05-15T15:37:36.060Z,1.70
2023-05-15T15:40:05.895Z,1.55
2023-05-15T15:42:34.046Z,2.10
2023-05-15T15:45:02.487Z,2.03
2023-05-15T15:47:31.916Z,1.73
2023-05-15T15:49:59.823Z,1.80
2023-05-15T15:52:29.223Z,1.70
2023-05-15T15:54:57.297Z,2.35
2023-05-15T15:57:25.032Z,1.92
2023-05-15T15:59:52.864Z,1.80
2023-05-15T16:02:20.990Z,2.22
2023-05-15T16:04:49.080Z,2.33
2023-05-15T16:07:16.886Z,2.47
2023-05-15T16:09:49.270Z,2.85
2023-05-15T16:12:21.493Z,2.53
2023-05-15T16:14:49.244Z,2.50
2023-05-15T16:17:17.079Z,2.35
2023-05-15T16:19:44.809Z,2.50
2023-05-15T16:22:12.505Z,2.58
2023-05-15T16:24:40.865Z,6.72
2023-05-15T16:27:10.003Z,3.22
2023-05-15T16:29:37.701Z,2.60
2023-05-15T16:32:05.852Z,2.40
2023-05-15T16:34:34.091Z,2.28
2023-05-15T16:37:01.785Z,2.45
2023-05-15T16:39:29.520Z,2.13
2023-05-15T16:41:57.248Z,2.40
2023-05-15T16:44:26.247Z,1.63
2023-05-15T16:46:54.238Z,1.63
2023-05-15T16:49:21.943Z,1.90
2023-05-15T16:51:49.765Z,1.80
2023-05-15T16:54:17.428Z,2.15
2023-05-15T16:56:45.264Z,1.70
2023-05-15T16:59:13.280Z,1.40
2023-05-15T17:01:42.540Z,1.67
2023-05-15T17:04:10.376Z,1.58
2023-05-15T17:06:38.160Z,1.70
2023-05-15T17:09:05.859Z,1.70
2023-05-15T17:11:33.757Z,1.70
2023-05-15T17:14:02.007Z,1.70
2023-05-15T17:16:29.880Z,1.40
2023-05-15T17:18:59.349Z,1.55
2023-05-15T17:21:27.190Z,1.70
2023-05-15T17:23:56.093Z,1.65
2023-05-15T17:26:23.837Z,1.80
2023-05-15T17:28:51.715Z,1.50
2023-05-15T17:31:20.982Z,1.83
2023-05-15T17:33:48.684Z,1.90
2023-05-15T17:36:18.484Z,1.60
2023-05-15T17:38:46.259Z,2.40
2023-05-15T17:41:14.049Z,2.10
2023-05-15T17:43:41.832Z,1.50
2023-05-15T17:46:09.682Z,1.58
2023-05-15T17:48:37.476Z,1.50
2023-05-15T17:51:05.275Z,1.60
2023-05-15T17:53:34.532Z,1.55
2023-05-15T17:56:02.270Z,1.60
2023-05-15T17:58:30.392Z,1.40
2023-05-15T18:00:58.143Z,1.50
2023-05-15T18:03:25.959Z,1.70
2023-05-15T18:05:53.893Z,2.08
2023-05-15T18:08:21.761Z,1.90
2023-05-15T18:10:50.893Z,1.80
2023-05-15T18:13:18.748Z,1.95
2023-05-15T18:15:46.518Z,2.00
2023-05-15T18:18:14.510Z,2.10
2023-05-15T18:20:42.225Z,1.88
2023-05-15T18:23:10.034Z,1.75
2023-05-15T18:25:37.825Z,1.67
2023-05-15T18:28:07.200Z,1.67
2023-05-15T18:30:35.676Z,2.20
2023-05-15T18:33:03.786Z,2.17
2023-05-15T18:35:31.667Z,1.90
2023-05-15T18:37:59.791Z,2.17
2023-05-15T18:40:28.038Z,2.35
2023-05-15T18:42:56.602Z,1.90
2023-05-15T18:45:26.603Z,2.13
2023-05-15T18:47:55.109Z,1.90
2023-05-15T18:50:24.932Z,2.10
2023-05-15T18:52:53.092Z,2.30
2023-05-15T18:55:22.101Z,2.25
2023-05-15T18:57:49.826Z,2.25
2023-05-15T19:00:26.645Z,2.40
2023-05-15T19:03:03.213Z,2.28
2023-05-15T19:05:33.075Z,2.30
2023-05-15T19:08:01.305Z,2.90
2023-05-15T19:10:29.779Z,2.60
2023-05-15T19:12:58.144Z,2.83
2023-05-15T19:15:26.653Z,2.80
2023-05-15T19:17:54.452Z,2.60
2023-05-15T19:20:23.655Z,2.30
2023-05-15T19:22:51.531Z,2.60
2023-05-15T19:25:19.467Z,2.72
2023-05-15T19:27:48.109Z,2.50
2023-05-15T19:30:16.074Z,2.90
2023-05-15T19:32:43.903Z,2.67
2023-05-15T19:35:11.888Z,2.40
2023-05-15T19:37:41.011Z,2.50
2023-05-15T19:40:09.887Z,2.72
2023-05-15T19:42:37.654Z,2.20
2023-05-15T19:45:07.221Z,2.60
2023-05-15T19:47:35.374Z,2.20
2023-05-15T19:50:03.342Z,2.58
2023-05-15T19:52:31.079Z,2.72
2023-05-15T19:55:00.183Z,2.50
2023-05-15T19:57:27.920Z,3.05
2023-05-15T19:59:55.675Z,3.55
2023-05-15T20:02:23.648Z,2.83
2023-05-15T20:04:51.750Z,2.78
2023-05-15T20:07:19.583Z,2.45
2023-05-15T20:09:47.341Z,2.60
2023-05-15T20:12:16.402Z,2.60
2023-05-15T20:14:49.653Z,2.65
2023-05-15T20:17:18.249Z,3.80
2023-05-15T20:19:46.656Z,5.18
2023-05-15T20:22:14.468Z,2.85
2023-05-15T20:24:42.279Z,2.60
2023-05-15T20:27:10.015Z,2.45
2023-05-15T20:29:39.724Z,3.08
2023-05-15T20:32:08.010Z,2.83
2023-05-15T20:34:36.828Z,3.75
2023-05-15T20:37:04.547Z,3.17
2023-05-15T20:39:32.705Z,3.05
2023-05-15T20:42:00.905Z,2.88
2023-05-15T20:44:29.914Z,2.83
2023-05-15T20:46:59.039Z,3.03
2023-05-15T20:49:26.768Z,2.92
2023-05-15T20:51:54.823Z,2.83
2023-05-15T20:54:22.564Z,2.80
2023-05-15T20:56:50.574Z,3.10
2023-05-15T20:59:18.362Z,2.70
2023-05-15T21:01:46.134Z,2.92
2023-05-15T21:04:15.436Z,2.83
2023-05-15T21:06:43.340Z,3.17
2023-05-15T21:09:11.261Z,5.13
2023-05-15T21:11:38.947Z,3.72
2023-05-15T21:14:07.399Z,3.13
2023-05-15T21:16:35.346Z,3.45
2023-05-15T21:19:03.225Z,3.55
2023-05-15T21:21:32.420Z,3.67
2023-05-15T21:24:02.476Z,3.65
2023-05-15T21:26:30.322Z,3.28
2023-05-15T21:28:59.035Z,4.03
2023-05-15T21:31:27.408Z,4.18
2023-05-15T21:33:55.926Z,4.20
2023-05-15T21:36:23.935Z,3.80
2023-05-15T21:38:53.036Z,4.13
2023-05-15T21:41:20.859Z,3.92
2023-05-15T21:43:48.620Z,4.25
2023-05-15T21:46:16.630Z,3.97
2023-05-15T21:48:44.391Z,3.83
2023-05-15T21:51:12.290Z,3.80
2023-05-15T21:53:40.074Z,3.95
2023-05-15T21:56:09.743Z,4.20
2023-05-15T21:58:37.552Z,4.70
2023-05-15T22:01:05.371Z,4.82
2023-05-15T22:03:33.288Z,4.50
2023-05-15T22:06:01.064Z,4.03
2023-05-15T22:08:29.154Z,4.07
2023-05-15T22:10:57.007Z,4.05
2023-05-15T22:13:26.269Z,4.38
2023-05-15T22:15:54.148Z,4.43
2023-05-15T22:18:23.161Z,4.50
2023-05-15T22:20:52.346Z,5.25
2023-05-15T22:23:20.062Z,4.57
2023-05-15T22:25:49.074Z,4.85
2023-05-15T22:28:16.963Z,5.20
2023-05-15T22:30:46.194Z,4.68
2023-05-15T22:33:14.051Z,5.05
2023-05-15T22:35:41.849Z,4.97
2023-05-15T22:38:09.747Z,4.65
2023-05-15T22:40:37.501Z,5.57
2023-05-15T22:43:05.274Z,5.57
2023-05-15T22:45:33.065Z,5.30
2023-05-15T22:48:02.582Z,5.20
2023-05-15T22:50:30.459Z,4.88
2023-05-15T22:52:58.177Z,5.18
2023-05-15T22:55:25.976Z,4.72
2023-05-15T22:57:53.736Z,5.20
2023-05-15T23:00:21.723Z,5.20
2023-05-15T23:02:49.525Z,5.30
2023-05-15T23:05:18.891Z,5.07
2023-05-15T23:07:46.730Z,5.63
2023-05-15T23:10:14.562Z,5.13
2023-05-15T23:12:42.528Z,5.43
2023-05-15T23:15:11.301Z,5.10
2023-05-15T23:17:40.401Z,6.03
2023-05-15T23:20:10.536Z,5.32
2023-05-15T23:22:40.411Z,5.50
2023-05-15T23:25:08.781Z,5.53
2023-05-15T23:27:36.882Z,5.35
2023-05-15T23:30:05.628Z,5.55
2023-05-15T23:32:33.419Z,5.38
2023-05-15T23:35:01.174Z,5.18
2023-05-15T23:37:28.974Z,5.00
2023-05-15T23:39:58.143Z,5.60
2023-05-15T23:42:25.973Z,5.35
2023-05-15T23:44:53.795Z,5.20
2023-05-15T23:47:21.611Z,4.82
2023-05-15T23:49:49.648Z,4.72
2023-05-15T23:52:17.412Z,4.15
2023-05-15T23:54:45.220Z,4.28
2023-05-15T23:57:15.504Z,4.60
2023-05-15T23:59:43.282Z,5.25
